sensor_id;sensor_type;location;lat;lon;timestamp;P1;durP1;ratioP1;P2;durP2;ratioP2
6513;SDS011;3290;47.716;9.070;2023-02-28T00:02:17;7.87;;;5.50;;
6513;SDS011;3290;47.716;9.070;2023-02-28T00:04:42;11.60;;;5.37;;
6513;SDS011;3290;47.716;9.070;2023-02-28T00:07:08;7.13;;;5.70;;
6513;SDS011;3290;47.716;9.070;2023-02-28T00:09:34;8.60;;;5.90;;
6513;SDS011;3290;47.716;9.070;2023-02-28T00:11:59;8.60;;;5.40;;
6513;SDS011;3290;47.716;9.070;2023-02-28T00:14:25;9.33;;;5.80;;
6513;SDS011;3290;47.716;9.070;2023-02-28T00:16:50;9.63;;;6.00;;
6513;SDS011;3290;47.716;9.070;2023-02-28T00:19:15;11.83;;;5.43;;
6513;SDS011;3290;47.716;9.070;2023-02-28T00:21:41;6.80;;;5.17;;
6513;SDS011;3290;47.716;9.070;2023-02-28T00:24:06;8.43;;;5.80;;
6513;SDS011;3290;47.716;9.070;2023-02-28T00:26:32;8.40;;;5.93;;
6513;SDS011;3290;47.716;9.070;2023-02-28T00:28:57;8.30;;;6.17;;
6513;SDS011;3290;47.716;9.070;2023-02-28T00:31:23;7.63;;;5.50;;
6513;SDS011;3290;47.716;9.070;2023-02-28T00:33:48;7.40;;;4.77;;
6513;SDS011;3290;47.716;9.070;2023-02-28T00:36:13;8.60;;;4.47;;
6513;SDS011;3290;47.716;9.070;2023-02-28T00:38:39;8.63;;;4.67;;
6513;SDS011;3290;47.716;9.070;2023-02-28T00:41:05;7.57;;;5.13;;
6513;SDS011;3290;47.716;9.070;2023-02-28T00:43:33;9.03;;;5.20;;
6513;SDS011;3290;47.716;9.070;2023-02-28T00:45:59;8.80;;;5.63;;
6513;SDS011;3290;47.716;9.070;2023-02-28T00:48:25;7.87;;;5.77;;
6513;SDS011;3290;47.716;9.070;2023-02-28T00:50:50;7.63;;;5.03;;
6513;SDS011;3290;47.716;9.070;2023-02-28T00:53:16;11.00;;;4.50;;
6513;SDS011;3290;47.716;9.070;2023-02-28T00:55:41;9.10;;;5.50;;
6513;SDS011;3290;47.716;9.070;2023-02-28T00:58:06;11.20;;;5.27;;
6513;SDS011;3290;47.716;9.070;2023-02-28T01:00:32;8.63;;;5.77;;
6513;SDS011;3290;47.716;9.070;2023-02-28T01:02:57;7.30;;;5.37;;
6513;SDS011;3290;47.716;9.070;2023-02-28T01:05:22;8.43;;;5.53;;
6513;SDS011;3290;47.716;9.070;2023-02-28T01:07:48;7.13;;;4.83;;
6513;SDS011;3290;47.716;9.070;2023-02-28T01:10:14;8.17;;;5.40;;
6513;SDS011;3290;47.716;9.070;2023-02-28T01:12:39;8.07;;;5.80;;
6513;SDS011;3290;47.716;9.070;2023-02-28T01:15:04;8.47;;;5.30;;
6513;SDS011;3290;47.716;9.070;2023-02-28T01:17:30;7.90;;;5.60;;
6513;SDS011;3290;47.716;9.070;2023-02-28T01:19:56;8.73;;;5.67;;
6513;SDS011;3290;47.716;9.070;2023-02-28T01:22:21;7.40;;;4.90;;
6513;SDS011;3290;47.716;9.070;2023-02-28T01:24:46;10.83;;;6.00;;
6513;SDS011;3290;47.716;9.070;2023-02-28T01:27:12;7.93;;;5.03;;
6513;SDS011;3290;47.716;9.070;2023-02-28T01:29:38;9.07;;;5.63;;
6513;SDS011;3290;47.716;9.070;2023-02-28T01:32:03;11.47;;;5.30;;
6513;SDS011;3290;47.716;9.070;2023-02-28T01:34:29;12.63;;;7.37;;
6513;SDS011;3290;47.716;9.070;2023-02-28T01:36:54;6.13;;;5.00;;
6513;SDS011;3290;47.716;9.070;2023-02-28T01:39:20;8.20;;;5.30;;
6513;SDS011;3290;47.716;9.070;2023-02-28T01:41:45;6.77;;;5.30;;
6513;SDS011;3290;47.716;9.070;2023-02-28T01:47:14;7.67;;;4.33;;
6513;SDS011;3290;47.716;9.070;2023-02-28T01:49:39;5.60;;;4.53;;
6513;SDS011;3290;47.716;9.070;2023-02-28T01:52:05;8.13;;;5.20;;
6513;SDS011;3290;47.716;9.070;2023-02-28T01:54:33;7.50;;;4.80;;
6513;SDS011;3290;47.716;9.070;2023-02-28T01:57:33;12.90;;;5.67;;
6513;SDS011;3290;47.716;9.070;2023-02-28T01:59:56;5.83;;;4.93;;
6513;SDS011;3290;47.716;9.070;2023-02-28T02:02:25;7.80;;;5.53;;
6513;SDS011;3290;47.716;9.070;2023-02-28T02:07:26;5.00;;;4.10;;
6513;SDS011;3290;47.716;9.070;2023-02-28T02:09:59;6.63;;;4.40;;
6513;SDS011;3290;47.716;9.070;2023-02-28T02:12:51;8.93;;;5.43;;
6513;SDS011;3290;47.716;9.070;2023-02-28T02:18:16;9.90;;;5.37;;
6513;SDS011;3290;47.716;9.070;2023-02-28T02:40:24;5.43;;;4.20;;
6513;SDS011;3290;47.716;9.070;2023-02-28T02:45:28;7.37;;;4.60;;
6513;SDS011;3290;47.716;9.070;2023-02-28T02:48:02;4.87;;;4.47;;
6513;SDS011;3290;47.716;9.070;2023-02-28T02:50:33;6.43;;;4.40;;
6513;SDS011;3290;47.716;9.070;2023-02-28T02:53:03;6.90;;;4.10;;
6513;SDS011;3290;47.716;9.070;2023-02-28T02:55:31;7.03;;;4.47;;
6513;SDS011;3290;47.716;9.070;2023-02-28T02:58:03;7.03;;;4.63;;
6513;SDS011;3290;47.716;9.070;2023-02-28T03:00:34;6.30;;;4.73;;
6513;SDS011;3290;47.716;9.070;2023-02-28T03:03:04;6.37;;;4.73;;
6513;SDS011;3290;47.716;9.070;2023-02-28T03:05:51;5.73;;;4.20;;
6513;SDS011;3290;47.716;9.070;2023-02-28T03:08:17;6.30;;;4.57;;
6513;SDS011;3290;47.716;9.070;2023-02-28T03:10:43;7.57;;;4.70;;
6513;SDS011;3290;47.716;9.070;2023-02-28T03:24:10;18.63;;;8.10;;
6513;SDS011;3290;47.716;9.070;2023-02-28T03:26:43;6.00;;;4.20;;
6513;SDS011;3290;47.716;9.070;2023-02-28T03:34:51;8.93;;;5.17;;
6513;SDS011;3290;47.716;9.070;2023-02-28T03:37:24;13.40;;;5.57;;
6513;SDS011;3290;47.716;9.070;2023-02-28T03:39:59;8.97;;;4.13;;
6513;SDS011;3290;47.716;9.070;2023-02-28T03:42:31;8.00;;;4.80;;
6513;SDS011;3290;47.716;9.070;2023-02-28T03:45:02;5.87;;;4.70;;
6513;SDS011;3290;47.716;9.070;2023-02-28T03:48:13;6.57;;;4.30;;
6513;SDS011;3290;47.716;9.070;2023-02-28T03:50:21;7.10;;;4.50;;
6513;SDS011;3290;47.716;9.070;2023-02-28T03:55:27;5.50;;;4.10;;
6513;SDS011;3290;47.716;9.070;2023-02-28T04:00:46;5.60;;;4.57;;
6513;SDS011;3290;47.716;9.070;2023-02-28T04:03:16;7.07;;;5.00;;
6513;SDS011;3290;47.716;9.070;2023-02-28T04:05:51;5.00;;;4.47;;
6513;SDS011;3290;47.716;9.070;2023-02-28T04:08:18;6.83;;;5.43;;
6513;SDS011;3290;47.716;9.070;2023-02-28T04:10:44;9.20;;;5.10;;
6513;SDS011;3290;47.716;9.070;2023-02-28T04:13:13;7.17;;;5.10;;
6513;SDS011;3290;47.716;9.070;2023-02-28T04:15:38;6.30;;;3.63;;
6513;SDS011;3290;47.716;9.070;2023-02-28T04:18:04;4.97;;;3.60;;
6513;SDS011;3290;47.716;9.070;2023-02-28T04:20:29;5.73;;;4.20;;
6513;SDS011;3290;47.716;9.070;2023-02-28T04:22:54;7.67;;;5.03;;
6513;SDS011;3290;47.716;9.070;2023-02-28T04:25:20;6.23;;;4.40;;
6513;SDS011;3290;47.716;9.070;2023-02-28T04:27:45;5.20;;;3.97;;
6513;SDS011;3290;47.716;9.070;2023-02-28T04:30:10;7.37;;;4.40;;
6513;SDS011;3290;47.716;9.070;2023-02-28T04:32:37;7.60;;;4.30;;
6513;SDS011;3290;47.716;9.070;2023-02-28T04:35:02;5.80;;;4.30;;
6513;SDS011;3290;47.716;9.070;2023-02-28T04:37:28;5.87;;;4.20;;
6513;SDS011;3290;47.716;9.070;2023-02-28T04:39:53;5.53;;;4.20;;
6513;SDS011;3290;47.716;9.070;2023-02-28T04:42:19;9.03;;;5.00;;
6513;SDS011;3290;47.716;9.070;2023-02-28T04:44:44;7.37;;;4.70;;
6513;SDS011;3290;47.716;9.070;2023-02-28T04:47:10;6.00;;;4.20;;
6513;SDS011;3290;47.716;9.070;2023-02-28T04:49:35;7.97;;;4.43;;
6513;SDS011;3290;47.716;9.070;2023-02-28T04:52:01;7.33;;;4.93;;
6513;SDS011;3290;47.716;9.070;2023-02-28T04:54:26;9.57;;;5.20;;
6513;SDS011;3290;47.716;9.070;2023-02-28T04:56:53;8.60;;;5.27;;
6513;SDS011;3290;47.716;9.070;2023-02-28T04:59:19;10.13;;;5.20;;
6513;SDS011;3290;47.716;9.070;2023-02-28T05:01:46;7.37;;;5.20;;
6513;SDS011;3290;47.716;9.070;2023-02-28T05:04:12;9.23;;;5.20;;
6513;SDS011;3290;47.716;9.070;2023-02-28T05:06:38;7.40;;;5.00;;
6513;SDS011;3290;47.716;9.070;2023-02-28T05:09:03;12.40;;;5.40;;
6513;SDS011;3290;47.716;9.070;2023-02-28T05:11:29;8.37;;;5.37;;
6513;SDS011;3290;47.716;9.070;2023-02-28T05:14:00;8.60;;;5.77;;
6513;SDS011;3290;47.716;9.070;2023-02-28T05:16:30;8.57;;;5.80;;
6513;SDS011;3290;47.716;9.070;2023-02-28T05:18:56;7.80;;;5.43;;
6513;SDS011;3290;47.716;9.070;2023-02-28T05:21:31;9.00;;;6.80;;
6513;SDS011;3290;47.716;9.070;2023-02-28T05:24:05;9.20;;;5.67;;
6513;SDS011;3290;47.716;9.070;2023-02-28T05:26:36;7.57;;;5.27;;
6513;SDS011;3290;47.716;9.070;2023-02-28T05:29:03;10.50;;;6.00;;
6513;SDS011;3290;47.716;9.070;2023-02-28T05:31:30;9.33;;;5.63;;
6513;SDS011;3290;47.716;9.070;2023-02-28T05:33:55;7.93;;;5.20;;
6513;SDS011;3290;47.716;9.070;2023-02-28T05:36:21;10.10;;;6.00;;
6513;SDS011;3290;47.716;9.070;2023-02-28T05:38:47;9.77;;;6.37;;
6513;SDS011;3290;47.716;9.070;2023-02-28T05:41:13;6.77;;;5.60;;
6513;SDS011;3290;47.716;9.070;2023-02-28T05:43:38;7.40;;;5.60;;
6513;SDS011;3290;47.716;9.070;2023-02-28T05:46:04;8.83;;;5.83;;
6513;SDS011;3290;47.716;9.070;2023-02-28T05:48:34;10.63;;;6.13;;
6513;SDS011;3290;47.716;9.070;2023-02-28T05:51:01;10.00;;;6.40;;
6513;SDS011;3290;47.716;9.070;2023-02-28T05:53:28;10.17;;;7.03;;
6513;SDS011;3290;47.716;9.070;2023-02-28T05:55:54;10.93;;;7.63;;
6513;SDS011;3290;47.716;9.070;2023-02-28T05:58:19;11.27;;;7.27;;
6513;SDS011;3290;47.716;9.070;2023-02-28T06:00:45;13.70;;;8.40;;
6513;SDS011;3290;47.716;9.070;2023-02-28T06:03:11;10.90;;;7.47;;
6513;SDS011;3290;47.716;9.070;2023-02-28T06:05:36;10.00;;;7.00;;
6513;SDS011;3290;47.716;9.070;2023-02-28T06:08:01;11.33;;;7.47;;
6513;SDS011;3290;47.716;9.070;2023-02-28T06:10:27;9.93;;;6.73;;
6513;SDS011;3290;47.716;9.070;2023-02-28T06:12:52;6.73;;;5.70;;
6513;SDS011;3290;47.716;9.070;2023-02-28T06:15:17;9.50;;;7.07;;
6513;SDS011;3290;47.716;9.070;2023-02-28T06:17:43;8.50;;;6.60;;
6513;SDS011;3290;47.716;9.070;2023-02-28T06:20:09;6.57;;;5.70;;
6513;SDS011;3290;47.716;9.070;2023-02-28T06:22:37;9.10;;;6.10;;
6513;SDS011;3290;47.716;9.070;2023-02-28T06:25:04;9.10;;;6.07;;
6513;SDS011;3290;47.716;9.070;2023-02-28T06:27:31;9.70;;;6.40;;
6513;SDS011;3290;47.716;9.070;2023-02-28T06:29:57;10.23;;;6.33;;
6513;SDS011;3290;47.716;9.070;2023-02-28T06:32:23;12.97;;;6.53;;
6513;SDS011;3290;47.716;9.070;2023-02-28T06:34:48;8.60;;;6.37;;
6513;SDS011;3290;47.716;9.070;2023-02-28T06:37:15;6.73;;;5.60;;
6513;SDS011;3290;47.716;9.070;2023-02-28T06:39:40;7.50;;;6.10;;
6513;SDS011;3290;47.716;9.070;2023-02-28T06:42:06;9.13;;;6.50;;
6513;SDS011;3290;47.716;9.070;2023-02-28T06:44:31;12.90;;;7.70;;
6513;SDS011;3290;47.716;9.070;2023-02-28T06:47:00;14.30;;;7.07;;
6513;SDS011;3290;47.716;9.070;2023-02-28T06:49:28;8.10;;;6.00;;
6513;SDS011;3290;47.716;9.070;2023-02-28T06:51:54;9.77;;;6.10;;
6513;SDS011;3290;47.716;9.070;2023-02-28T06:54:20;9.73;;;5.73;;
6513;SDS011;3290;47.716;9.070;2023-02-28T06:56:45;11.20;;;6.60;;
6513;SDS011;3290;47.716;9.070;2023-02-28T06:59:12;9.97;;;6.70;;
6513;SDS011;3290;47.716;9.070;2023-02-28T07:01:37;8.87;;;6.00;;
6513;SDS011;3290;47.716;9.070;2023-02-28T07:04:04;11.47;;;7.40;;
6513;SDS011;3290;47.716;9.070;2023-02-28T07:06:30;11.93;;;7.57;;
6513;SDS011;3290;47.716;9.070;2023-02-28T07:08:56;10.20;;;6.03;;
6513;SDS011;3290;47.716;9.070;2023-02-28T07:11:22;10.60;;;6.47;;
6513;SDS011;3290;47.716;9.070;2023-02-28T07:13:50;9.90;;;6.43;;
6513;SDS011;3290;47.716;9.070;2023-02-28T07:16:16;12.03;;;7.17;;
6513;SDS011;3290;47.716;9.070;2023-02-28T07:18:42;10.43;;;6.80;;
6513;SDS011;3290;47.716;9.070;2023-02-28T07:21:09;9.47;;;6.83;;
6513;SDS011;3290;47.716;9.070;2023-02-28T07:23:35;9.30;;;6.93;;
6513;SDS011;3290;47.716;9.070;2023-02-28T07:26:04;9.97;;;7.90;;
6513;SDS011;3290;47.716;9.070;2023-02-28T07:28:30;16.03;;;7.50;;
6513;SDS011;3290;47.716;9.070;2023-02-28T07:30:55;11.17;;;7.37;;
6513;SDS011;3290;47.716;9.070;2023-02-28T07:33:21;8.13;;;6.37;;
6513;SDS011;3290;47.716;9.070;2023-02-28T07:35:46;10.43;;;7.17;;
6513;SDS011;3290;47.716;9.070;2023-02-28T07:38:12;13.07;;;8.00;;
6513;SDS011;3290;47.716;9.070;2023-02-28T07:40:38;10.77;;;7.20;;
6513;SDS011;3290;47.716;9.070;2023-02-28T07:43:04;10.90;;;8.67;;
6513;SDS011;3290;47.716;9.070;2023-02-28T07:45:29;10.70;;;7.93;;
6513;SDS011;3290;47.716;9.070;2023-02-28T07:47:56;11.20;;;7.43;;
6513;SDS011;3290;47.716;9.070;2023-02-28T07:50:22;11.83;;;7.87;;
6513;SDS011;3290;47.716;9.070;2023-02-28T07:52:47;13.53;;;8.40;;
6513;SDS011;3290;47.716;9.070;2023-02-28T07:55:13;12.93;;;7.30;;
6513;SDS011;3290;47.716;9.070;2023-02-28T07:57:39;13.23;;;7.60;;
6513;SDS011;3290;47.716;9.070;2023-02-28T08:00:06;12.13;;;7.57;;
6513;SDS011;3290;47.716;9.070;2023-02-28T08:02:34;12.23;;;7.20;;
6513;SDS011;3290;47.716;9.070;2023-02-28T08:05:00;9.93;;;7.37;;
6513;SDS011;3290;47.716;9.070;2023-02-28T08:07:26;10.67;;;6.17;;
6513;SDS011;3290;47.716;9.070;2023-02-28T08:09:52;12.00;;;7.60;;
6513;SDS011;3290;47.716;9.070;2023-02-28T08:12:17;14.37;;;7.73;;
6513;SDS011;3290;47.716;9.070;2023-02-28T08:14:42;14.70;;;6.67;;
6513;SDS011;3290;47.716;9.070;2023-02-28T08:17:08;9.73;;;6.90;;
6513;SDS011;3290;47.716;9.070;2023-02-28T08:19:34;13.27;;;7.93;;
6513;SDS011;3290;47.716;9.070;2023-02-28T08:22:00;13.33;;;7.53;;
6513;SDS011;3290;47.716;9.070;2023-02-28T08:24:25;11.97;;;7.13;;
6513;SDS011;3290;47.716;9.070;2023-02-28T08:26:51;13.57;;;8.17;;
6513;SDS011;3290;47.716;9.070;2023-02-28T08:29:16;9.70;;;6.93;;
6513;SDS011;3290;47.716;9.070;2023-02-28T08:31:42;13.10;;;7.27;;
6513;SDS011;3290;47.716;9.070;2023-02-28T08:34:11;9.70;;;6.73;;
6513;SDS011;3290;47.716;9.070;2023-02-28T08:36:39;13.07;;;7.70;;
6513;SDS011;3290;47.716;9.070;2023-02-28T08:39:05;11.97;;;7.07;;
6513;SDS011;3290;47.716;9.070;2023-02-28T08:41:31;15.30;;;9.23;;
6513;SDS011;3290;47.716;9.070;2023-02-28T08:43:56;13.73;;;7.80;;
6513;SDS011;3290;47.716;9.070;2023-02-28T08:46:22;11.40;;;7.53;;
6513;SDS011;3290;47.716;9.070;2023-02-28T08:48:51;12.13;;;7.90;;
6513;SDS011;3290;47.716;9.070;2023-02-28T08:51:17;12.47;;;8.57;;
6513;SDS011;3290;47.716;9.070;2023-02-28T08:53:47;11.67;;;7.80;;
6513;SDS011;3290;47.716;9.070;2023-02-28T08:56:14;14.77;;;8.20;;
6513;SDS011;3290;47.716;9.070;2023-02-28T08:58:41;12.10;;;8.40;;
6513;SDS011;3290;47.716;9.070;2023-02-28T09:01:11;12.13;;;7.73;;
6513;SDS011;3290;47.716;9.070;2023-02-28T09:03:39;20.00;;;10.83;;
6513;SDS011;3290;47.716;9.070;2023-02-28T09:06:07;12.47;;;7.73;;
6513;SDS011;3290;47.716;9.070;2023-02-28T09:08:39;11.43;;;7.70;;
6513;SDS011;3290;47.716;9.070;2023-02-28T09:11:04;12.73;;;8.20;;
6513;SDS011;3290;47.716;9.070;2023-02-28T09:13:30;11.20;;;7.87;;
6513;SDS011;3290;47.716;9.070;2023-02-28T09:15:57;14.63;;;8.30;;
6513;SDS011;3290;47.716;9.070;2023-02-28T09:18:24;14.30;;;8.93;;
6513;SDS011;3290;47.716;9.070;2023-02-28T09:20:50;16.20;;;9.67;;
6513;SDS011;3290;47.716;9.070;2023-02-28T09:23:15;9.80;;;6.60;;
6513;SDS011;3290;47.716;9.070;2023-02-28T09:25:47;12.50;;;7.20;;
6513;SDS011;3290;47.716;9.070;2023-02-28T09:28:14;12.13;;;8.33;;
6513;SDS011;3290;47.716;9.070;2023-02-28T09:30:46;14.73;;;8.93;;
6513;SDS011;3290;47.716;9.070;2023-02-28T09:33:14;11.87;;;7.83;;
6513;SDS011;3290;47.716;9.070;2023-02-28T09:35:40;13.97;;;8.83;;
6513;SDS011;3290;47.716;9.070;2023-02-28T09:38:05;22.00;;;10.63;;
6513;SDS011;3290;47.716;9.070;2023-02-28T09:40:34;21.83;;;12.70;;
6513;SDS011;3290;47.716;9.070;2023-02-28T09:43:01;19.83;;;10.23;;
6513;SDS011;3290;47.716;9.070;2023-02-28T09:47:59;19.93;;;10.00;;
6513;SDS011;3290;47.716;9.070;2023-02-28T09:53:01;14.90;;;8.77;;
6513;SDS011;3290;47.716;9.070;2023-02-28T09:55:36;14.43;;;8.70;;
6513;SDS011;3290;47.716;9.070;2023-02-28T10:01:00;14.30;;;9.60;;
6513;SDS011;3290;47.716;9.070;2023-02-28T10:06:18;14.97;;;7.87;;
6513;SDS011;3290;47.716;9.070;2023-02-28T10:11:28;11.87;;;8.03;;
6513;SDS011;3290;47.716;9.070;2023-02-28T10:14:05;12.47;;;8.60;;
6513;SDS011;3290;47.716;9.070;2023-02-28T10:22:50;13.80;;;8.80;;
6513;SDS011;3290;47.716;9.070;2023-02-28T10:25:15;13.20;;;8.40;;
6513;SDS011;3290;47.716;9.070;2023-02-28T10:27:43;16.90;;;8.83;;
6513;SDS011;3290;47.716;9.070;2023-02-28T10:30:09;11.80;;;7.83;;
6513;SDS011;3290;47.716;9.070;2023-02-28T10:32:36;16.00;;;9.10;;
6513;SDS011;3290;47.716;9.070;2023-02-28T10:35:15;17.67;;;11.43;;
6513;SDS011;3290;47.716;9.070;2023-02-28T10:37:44;16.80;;;9.87;;
6513;SDS011;3290;47.716;9.070;2023-02-28T10:42:54;13.33;;;8.37;;
6513;SDS011;3290;47.716;9.070;2023-02-28T10:45:37;11.90;;;8.83;;
6513;SDS011;3290;47.716;9.070;2023-02-28T10:56:32;17.00;;;10.03;;
6513;SDS011;3290;47.716;9.070;2023-02-28T11:03:49;15.63;;;9.07;;
6513;SDS011;3290;47.716;9.070;2023-02-28T11:08:49;39.40;;;9.57;;
6513;SDS011;3290;47.716;9.070;2023-02-28T11:11:17;13.23;;;9.27;;
6513;SDS011;3290;47.716;9.070;2023-02-28T11:13:45;15.17;;;9.27;;
6513;SDS011;3290;47.716;9.070;2023-02-28T11:16:13;18.80;;;10.10;;
6513;SDS011;3290;47.716;9.070;2023-02-28T11:18:42;14.20;;;9.40;;
6513;SDS011;3290;47.716;9.070;2023-02-28T11:21:08;15.10;;;8.40;;
6513;SDS011;3290;47.716;9.070;2023-02-28T11:23:40;15.10;;;8.90;;
6513;SDS011;3290;47.716;9.070;2023-02-28T11:26:07;12.70;;;8.90;;
6513;SDS011;3290;47.716;9.070;2023-02-28T11:28:39;14.70;;;9.50;;
6513;SDS011;3290;47.716;9.070;2023-02-28T11:31:14;18.03;;;10.77;;
6513;SDS011;3290;47.716;9.070;2023-02-28T11:36:22;18.17;;;10.00;;
6513;SDS011;3290;47.716;9.070;2023-02-28T11:38:50;13.30;;;8.90;;
6513;SDS011;3290;47.716;9.070;2023-02-28T11:43:52;17.60;;;10.37;;
6513;SDS011;3290;47.716;9.070;2023-02-28T11:46:56;18.33;;;10.40;;
6513;SDS011;3290;47.716;9.070;2023-02-28T11:49:30;17.73;;;9.90;;
6513;SDS011;3290;47.716;9.070;2023-02-28T11:52:14;19.00;;;10.40;;
6513;SDS011;3290;47.716;9.070;2023-02-28T12:05:46;20.53;;;10.33;;
6513;SDS011;3290;47.716;9.070;2023-02-28T12:08:22;18.10;;;11.20;;
6513;SDS011;3290;47.716;9.070;2023-02-28T12:16:40;17.43;;;9.80;;
6513;SDS011;3290;47.716;9.070;2023-02-28T12:27:22;16.90;;;10.23;;
6513;SDS011;3290;47.716;9.070;2023-02-28T12:29:54;16.17;;;9.90;;
6513;SDS011;3290;47.716;9.070;2023-02-28T12:33:07;19.60;;;11.20;;
6513;SDS011;3290;47.716;9.070;2023-02-28T12:35:41;16.93;;;10.10;;
6513;SDS011;3290;47.716;9.070;2023-02-28T12:38:14;17.30;;;10.50;;
6513;SDS011;3290;47.716;9.070;2023-02-28T12:43:27;19.67;;;10.40;;
6513;SDS011;3290;47.716;9.070;2023-02-28T12:46:02;19.07;;;11.27;;
6513;SDS011;3290;47.716;9.070;2023-02-28T12:51:11;19.33;;;10.17;;
6513;SDS011;3290;47.716;9.070;2023-02-28T12:56:14;18.00;;;10.97;;
6513;SDS011;3290;47.716;9.070;2023-02-28T12:58:49;23.20;;;12.33;;
6513;SDS011;3290;47.716;9.070;2023-02-28T13:09:54;17.07;;;10.70;;
6513;SDS011;3290;47.716;9.070;2023-02-28T13:12:22;19.80;;;12.43;;
6513;SDS011;3290;47.716;9.070;2023-02-28T13:14:49;18.57;;;11.60;;
6513;SDS011;3290;47.716;9.070;2023-02-28T13:17:21;23.63;;;12.63;;
6513;SDS011;3290;47.716;9.070;2023-02-28T13:24:53;18.80;;;10.50;;
6513;SDS011;3290;47.716;9.070;2023-02-28T13:29:59;14.60;;;9.90;;
6513;SDS011;3290;47.716;9.070;2023-02-28T13:39:46;18.50;;;11.23;;
6513;SDS011;3290;47.716;9.070;2023-02-28T13:47:31;18.63;;;11.40;;
6513;SDS011;3290;47.716;9.070;2023-02-28T14:06:38;19.27;;;12.00;;
6513;SDS011;3290;47.716;9.070;2023-02-28T14:12:17;15.97;;;11.10;;
6513;SDS011;3290;47.716;9.070;2023-02-28T14:15:04;23.83;;;12.83;;
6513;SDS011;3290;47.716;9.070;2023-02-28T14:17:53;19.20;;;12.60;;
6513;SDS011;3290;47.716;9.070;2023-02-28T14:20:20;25.23;;;11.93;;
6513;SDS011;3290;47.716;9.070;2023-02-28T14:25:33;20.03;;;12.40;;
6513;SDS011;3290;47.716;9.070;2023-02-28T14:31:13;23.43;;;12.50;;
6513;SDS011;3290;47.716;9.070;2023-02-28T14:34:05;27.13;;;12.83;;
6513;SDS011;3290;47.716;9.070;2023-02-28T14:36:45;25.33;;;12.87;;
6513;SDS011;3290;47.716;9.070;2023-02-28T14:41:40;19.57;;;11.93;;
6513;SDS011;3290;47.716;9.070;2023-02-28T14:46:46;18.93;;;11.87;;
6513;SDS011;3290;47.716;9.070;2023-02-28T14:54:37;19.57;;;12.43;;
6513;SDS011;3290;47.716;9.070;2023-02-28T14:57:03;20.07;;;12.37;;
6513;SDS011;3290;47.716;9.070;2023-02-28T14:59:31;19.03;;;11.70;;
6513;SDS011;3290;47.716;9.070;2023-02-28T15:04:51;22.43;;;11.70;;
6513;SDS011;3290;47.716;9.070;2023-02-28T15:07:20;22.30;;;12.73;;
6513;SDS011;3290;47.716;9.070;2023-02-28T15:10:06;24.53;;;10.60;;
6513;SDS011;3290;47.716;9.070;2023-02-28T15:16:01;18.57;;;10.73;;
6513;SDS011;3290;47.716;9.070;2023-02-28T15:21:24;16.67;;;11.47;;
6513;SDS011;3290;47.716;9.070;2023-02-28T15:26:46;16.73;;;11.27;;
6513;SDS011;3290;47.716;9.070;2023-02-28T15:29:19;18.20;;;11.57;;
6513;SDS011;3290;47.716;9.070;2023-02-28T15:31:50;15.00;;;11.03;;
6513;SDS011;3290;47.716;9.070;2023-02-28T15:37:00;18.30;;;10.50;;
6513;SDS011;3290;47.716;9.070;2023-02-28T15:39:27;17.63;;;11.37;;
6513;SDS011;3290;47.716;9.070;2023-02-28T15:42:09;20.30;;;12.23;;
6513;SDS011;3290;47.716;9.070;2023-02-28T15:44:36;19.50;;;10.80;;
6513;SDS011;3290;47.716;9.070;2023-02-28T15:47:02;14.93;;;10.37;;
6513;SDS011;3290;47.716;9.070;2023-02-28T15:52:22;16.00;;;10.60;;
6513;SDS011;3290;47.716;9.070;2023-02-28T15:54:56;22.43;;;11.00;;
6513;SDS011;3290;47.716;9.070;2023-02-28T15:57:27;16.90;;;10.30;;
6513;SDS011;3290;47.716;9.070;2023-02-28T15:59:59;17.63;;;11.57;;
6513;SDS011;3290;47.716;9.070;2023-02-28T16:02:30;16.90;;;10.40;;
6513;SDS011;3290;47.716;9.070;2023-02-28T16:05:19;17.70;;;11.23;;
6513;SDS011;3290;47.716;9.070;2023-02-28T16:07:53;18.40;;;10.13;;
6513;SDS011;3290;47.716;9.070;2023-02-28T16:10:20;16.17;;;11.60;;
6513;SDS011;3290;47.716;9.070;2023-02-28T16:12:50;16.70;;;10.40;;
6513;SDS011;3290;47.716;9.070;2023-02-28T16:15:20;17.17;;;10.63;;
6513;SDS011;3290;47.716;9.070;2023-02-28T16:17:50;22.30;;;13.27;;
6513;SDS011;3290;47.716;9.070;2023-02-28T16:20:29;39.17;;;17.27;;
6513;SDS011;3290;47.716;9.070;2023-02-28T16:22:56;21.77;;;13.23;;
6513;SDS011;3290;47.716;9.070;2023-02-28T16:25:29;34.20;;;17.40;;
6513;SDS011;3290;47.716;9.070;2023-02-28T16:27:59;30.70;;;14.87;;
6513;SDS011;3290;47.716;9.070;2023-02-28T16:30:26;25.37;;;12.80;;
6513;SDS011;3290;47.716;9.070;2023-02-28T16:32:56;21.23;;;13.37;;
6513;SDS011;3290;47.716;9.070;2023-02-28T16:35:22;22.70;;;13.87;;
6513;SDS011;3290;47.716;9.070;2023-02-28T16:37:48;21.60;;;12.70;;
6513;SDS011;3290;47.716;9.070;2023-02-28T16:40:17;23.57;;;11.53;;
6513;SDS011;3290;47.716;9.070;2023-02-28T16:42:45;19.20;;;12.00;;
6513;SDS011;3290;47.716;9.070;2023-02-28T16:45:18;17.93;;;11.53;;
6513;SDS011;3290;47.716;9.070;2023-02-28T16:47:46;19.87;;;12.30;;
6513;SDS011;3290;47.716;9.070;2023-02-28T16:50:17;22.90;;;13.07;;
6513;SDS011;3290;47.716;9.070;2023-02-28T16:52:54;22.93;;;13.50;;
6513;SDS011;3290;47.716;9.070;2023-02-28T16:55:20;20.23;;;12.67;;
6513;SDS011;3290;47.716;9.070;2023-02-28T16:57:51;21.10;;;12.90;;
6513;SDS011;3290;47.716;9.070;2023-02-28T17:00:22;24.27;;;14.03;;
6513;SDS011;3290;47.716;9.070;2023-02-28T17:02:48;25.47;;;15.07;;
6513;SDS011;3290;47.716;9.070;2023-02-28T17:05:13;27.13;;;14.90;;
6513;SDS011;3290;47.716;9.070;2023-02-28T17:07:40;23.47;;;13.20;;
6513;SDS011;3290;47.716;9.070;2023-02-28T17:10:13;33.83;;;16.10;;
6513;SDS011;3290;47.716;9.070;2023-02-28T17:12:50;27.80;;;15.00;;
6513;SDS011;3290;47.716;9.070;2023-02-28T17:15:16;24.30;;;14.97;;
6513;SDS011;3290;47.716;9.070;2023-02-28T17:17:43;30.60;;;16.23;;
6513;SDS011;3290;47.716;9.070;2023-02-28T17:20:13;23.17;;;15.90;;
6513;SDS011;3290;47.716;9.070;2023-02-28T17:22:39;28.60;;;14.10;;
6513;SDS011;3290;47.716;9.070;2023-02-28T17:25:04;22.70;;;14.03;;
6513;SDS011;3290;47.716;9.070;2023-02-28T17:27:30;28.90;;;13.97;;
6513;SDS011;3290;47.716;9.070;2023-02-28T17:29:55;25.23;;;14.40;;
6513;SDS011;3290;47.716;9.070;2023-02-28T17:32:21;29.10;;;14.80;;
6513;SDS011;3290;47.716;9.070;2023-02-28T17:34:46;34.37;;;18.57;;
6513;SDS011;3290;47.716;9.070;2023-02-28T17:37:11;39.13;;;21.80;;
6513;SDS011;3290;47.716;9.070;2023-02-28T17:39:37;28.50;;;16.73;;
6513;SDS011;3290;47.716;9.070;2023-02-28T17:42:02;27.73;;;16.10;;
6513;SDS011;3290;47.716;9.070;2023-02-28T17:44:28;28.00;;;15.00;;
6513;SDS011;3290;47.716;9.070;2023-02-28T17:46:54;23.50;;;15.10;;
6513;SDS011;3290;47.716;9.070;2023-02-28T17:49:20;24.27;;;15.60;;
6513;SDS011;3290;47.716;9.070;2023-02-28T17:51:45;24.47;;;15.90;;
6513;SDS011;3290;47.716;9.070;2023-02-28T17:54:11;31.27;;;15.63;;
6513;SDS011;3290;47.716;9.070;2023-02-28T17:56:38;29.47;;;16.30;;
6513;SDS011;3290;47.716;9.070;2023-02-28T17:59:04;33.90;;;16.77;;
6513;SDS011;3290;47.716;9.070;2023-02-28T18:01:29;27.47;;;15.63;;
6513;SDS011;3290;47.716;9.070;2023-02-28T18:03:54;26.40;;;15.23;;
6513;SDS011;3290;47.716;9.070;2023-02-28T18:06:22;39.60;;;19.07;;
6513;SDS011;3290;47.716;9.070;2023-02-28T18:08:48;25.70;;;14.80;;
6513;SDS011;3290;47.716;9.070;2023-02-28T18:11:16;24.70;;;15.93;;
6513;SDS011;3290;47.716;9.070;2023-02-28T18:13:46;30.50;;;17.03;;
6513;SDS011;3290;47.716;9.070;2023-02-28T18:16:12;25.20;;;16.43;;
6513;SDS011;3290;47.716;9.070;2023-02-28T18:18:38;30.40;;;14.90;;
6513;SDS011;3290;47.716;9.070;2023-02-28T18:21:04;20.40;;;13.20;;
6513;SDS011;3290;47.716;9.070;2023-02-28T18:23:31;31.30;;;16.50;;
6513;SDS011;3290;47.716;9.070;2023-02-28T18:25:56;39.90;;;19.17;;
6513;SDS011;3290;47.716;9.070;2023-02-28T18:28:23;27.20;;;15.43;;
6513;SDS011;3290;47.716;9.070;2023-02-28T18:30:49;29.57;;;17.20;;
6513;SDS011;3290;47.716;9.070;2023-02-28T18:33:14;31.83;;;16.43;;
6513;SDS011;3290;47.716;9.070;2023-02-28T18:35:40;33.83;;;16.00;;
6513;SDS011;3290;47.716;9.070;2023-02-28T18:38:15;45.60;;;23.83;;
6513;SDS011;3290;47.716;9.070;2023-02-28T18:40:49;68.13;;;28.33;;
6513;SDS011;3290;47.716;9.070;2023-02-28T18:43:17;64.83;;;26.63;;